Time;durP1;ratioP1;P1;durP2;ratioP2;P2;SDS_P1;SDS_P2;PMS_P1;PMS_P2;Temp;Humidity;BMP_temperature;BMP_pressure;BME280_temperature;BME280_humidity;BME280_pressure;Samples;Min_cycle;Max_cycle;Signal;HPM_P1;HPM_P2
2024/01/06 00:00:59;;;;;;;14.80;10.70;;;;;;;;;;5100661;27;20048;-65
2024/01/06 00:03:26;;;;;;;21.00;11.07;;;;;;;;;;5100284;27;20070;-65
2024/01/06 00:05:52;;;;;;;16.70;10.85;;;;;;;;;;5080942;27;20035;-65
2024/01/06 00:08:18;;;;;;;15.88;10.15;;;;;;;;;;5114103;27;20039;-65
2024/01/06 00:10:44;;;;;;;13.43;9.32;;;;;;;;;;5098379;27;20101;-65
2024/01/06 00:13:11;;;;;;;13.68;9.77;;;;;;;;;;5118483;27;20045;-65
2024/01/06 00:15:37;;;;;;;11.82;9.07;;;;;;;;;;5099485;27;20046;-65
2024/01/06 00:18:03;;;;;;;14.98;9.30;;;;;;;;;;5078520;27;20418;-65
2024/01/06 00:20:29;;;;;;;13.25;9.02;;;;;;;;;;5099030;27;20173;-65
2024/01/06 00:22:58;;;;;;;13.95;9.57;;;;;;;;;;5117765;27;20043;-65
2024/01/06 00:25:24;;;;;;;13.00;8.68;;;;;;;;;;5100277;27;20134;-65
2024/01/06 00:27:51;;;;;;;15.60;8.77;;;;;;;;;;5113263;27;20458;-65
2024/01/06 00:30:17;;;;;;;15.65;9.27;;;;;;;;;;5100791;27;20054;-65
2024/01/06 00:32:43;;;;;;;11.23;8.10;;;;;;;;;;5106201;27;20051;-65
2024/01/06 00:35:09;;;;;;;12.18;8.45;;;;;;;;;;5101546;27;20086;-65
2024/01/06 00:37:35;;;;;;;13.48;8.13;;;;;;;;;;5115955;27;20047;-65
2024/01/06 00:40:02;;;;;;;13.02;8.00;;;;;;;;;;5102150;27;20051;-65
2024/01/06 00:42:28;;;;;;;12.02;7.80;;;;;;;;;;5117235;27;20100;-65
2024/01/06 00:44:54;;;;;;;12.20;8.60;;;;;;;;;;5115163;27;20051;-65
2024/01/06 00:47:23;;;;;;;16.20;8.55;;;;;;;;;;5084994;27;20043;-65
2024/01/06 00:49:50;;;;;;;11.55;8.30;;;;;;;;;;5118278;27;20449;-65
2024/01/06 00:52:16;;;;;;;13.52;8.52;;;;;;;;;;5099372;27;20063;-65
2024/01/06 00:54:42;;;;;;;12.93;8.30;;;;;;;;;;5116994;27;20505;-65
2024/01/06 00:57:08;;;;;;;15.15;9.10;;;;;;;;;;5097522;27;20050;-65
2024/01/06 00:59:34;;;;;;;14.77;8.98;;;;;;;;;;5118757;27;20039;-65
2024/01/06 01:02:01;;;;;;;12.90;9.38;;;;;;;;;;5095340;27;20099;-65
2024/01/06 01:04:27;;;;;;;15.52;8.95;;;;;;;;;;5116317;27;20070;-65
2024/01/06 01:06:53;;;;;;;15.60;7.72;;;;;;;;;;5098511;27;20395;-65
2024/01/06 01:09:19;;;;;;;13.55;8.20;;;;;;;;;;5098209;27;20047;-65
2024/01/06 01:11:45;;;;;;;12.40;8.68;;;;;;;;;;5090633;27;20047;-65
2024/01/06 01:14:12;;;;;;;15.57;8.48;;;;;;;;;;5099545;27;20181;-65
2024/01/06 01:16:38;;;;;;;11.82;7.57;;;;;;;;;;5117669;27;20031;-65
2024/01/06 01:19:04;;;;;;;15.40;8.80;;;;;;;;;;5097507;27;20043;-65
2024/01/06 01:21:30;;;;;;;13.77;8.43;;;;;;;;;;5101997;28;20039;-65
2024/01/06 01:23:56;;;;;;;14.25;7.68;;;;;;;;;;5118124;27;20075;-65
2024/01/06 01:26:22;;;;;;;12.25;7.80;;;;;;;;;;5097892;28;20046;-65
2024/01/06 01:28:48;;;;;;;13.82;8.18;;;;;;;;;;5100422;27;20120;-65
2024/01/06 01:31:15;;;;;;;12.10;8.00;;;;;;;;;;5117291;27;20189;-65
2024/01/06 01:33:41;;;;;;;13.45;8.98;;;;;;;;;;5098030;28;20419;-65
2024/01/06 01:36:07;;;;;;;13.20;8.23;;;;;;;;;;5097453;28;20060;-65
2024/01/06 01:38:33;;;;;;;13.98;7.82;;;;;;;;;;5095233;28;20078;-65
2024/01/06 01:40:59;;;;;;;14.88;8.45;;;;;;;;;;5102202;28;20050;-65
2024/01/06 01:43:26;;;;;;;15.82;8.70;;;;;;;;;;5101223;28;20039;-65
2024/01/06 01:45:54;;;;;;;17.77;9.35;;;;;;;;;;5117949;28;20051;-65
2024/01/06 01:48:20;;;;;;;14.43;9.05;;;;;;;;;;5097761;28;20047;-65
2024/01/06 01:50:47;;;;;;;16.75;9.23;;;;;;;;;;5116728;28;20133;-65
2024/01/06 01:53:14;;;;;;;16.17;9.27;;;;;;;;;;5100168;28;20041;-65
2024/01/06 01:55:41;;;;;;;16.50;10.30;;;;;;;;;;5096969;28;20047;-65
2024/01/06 01:58:08;;;;;;;17.02;9.02;;;;;;;;;;5102442;28;20040;-65
2024/01/06 02:00:34;;;;;;;23.80;9.32;;;;;;;;;;5100415;28;20039;-65
2024/01/06 02:03:01;;;;;;;17.10;9.52;;;;;;;;;;5120428;28;20039;-65
2024/01/06 02:05:27;;;;;;;17.48;9.85;;;;;;;;;;5102264;28;20049;-65
2024/01/06 02:07:54;;;;;;;17.55;10.07;;;;;;;;;;5099764;28;20495;-65
2024/01/06 02:10:20;;;;;;;19.10;10.45;;;;;;;;;;5098796;28;20477;-65
2024/01/06 02:12:46;;;;;;;19.20;9.75;;;;;;;;;;5117766;28;20037;-65
2024/01/06 02:15:12;;;;;;;19.27;9.85;;;;;;;;;;5095157;28;20035;-65
2024/01/06 02:17:39;;;;;;;16.00;9.43;;;;;;;;;;5119304;27;20077;-65
2024/01/06 02:20:06;;;;;;;21.45;10.25;;;;;;;;;;5101681;28;20043;-65
2024/01/06 02:22:33;;;;;;;17.80;10.00;;;;;;;;;;5097881;27;20055;-65
2024/01/06 02:24:59;;;;;;;25.13;12.07;;;;;;;;;;5120014;27;20126;-65
2024/01/06 02:27:26;;;;;;;21.05;10.52;;;;;;;;;;5102072;27;20036;-65
2024/01/06 02:29:52;;;;;;;16.33;10.52;;;;;;;;;;5102869;27;20407;-66
2024/01/06 02:32:18;;;;;;;22.30;10.85;;;;;;;;;;5103954;27;20209;-65
2024/01/06 02:34:44;;;;;;;17.85;10.27;;;;;;;;;;5102873;27;20055;-65
2024/01/06 02:37:10;;;;;;;16.92;10.55;;;;;;;;;;5104738;27;20092;-65
2024/01/06 02:39:37;;;;;;;18.55;10.15;;;;;;;;;;5106187;27;20117;-65
2024/01/06 02:42:03;;;;;;;14.77;8.75;;;;;;;;;;5106976;27;20112;-65
2024/01/06 02:44:29;;;;;;;19.55;10.02;;;;;;;;;;5096073;27;20110;-66
2024/01/06 02:46:55;;;;;;;23.67;10.18;;;;;;;;;;5104234;27;20047;-65
2024/01/06 02:49:21;;;;;;;16.80;10.18;;;;;;;;;;5105319;27;20074;-65
2024/01/06 02:51:47;;;;;;;13.90;8.90;;;;;;;;;;5105856;27;20050;-65
2024/01/06 02:54:14;;;;;;;18.83;10.27;;;;;;;;;;5102111;27;20399;-65
2024/01/06 02:56:40;;;;;;;16.50;9.48;;;;;;;;;;5102192;27;20661;-65
2024/01/06 02:59:06;;;;;;;18.67;9.35;;;;;;;;;;5098607;27;20084;-65
2024/01/06 03:01:32;;;;;;;18.58;10.68;;;;;;;;;;5101411;27;20501;-65
2024/01/06 03:03:58;;;;;;;23.20;10.32;;;;;;;;;;5098796;27;20058;-65
2024/01/06 03:06:25;;;;;;;20.83;10.27;;;;;;;;;;5097361;27;20078;-66
2024/01/06 03:08:51;;;;;;;18.77;9.73;;;;;;;;;;5099224;27;20055;-65
2024/01/06 03:11:17;;;;;;;22.23;9.25;;;;;;;;;;5096621;27;20049;-65
2024/01/06 03:13:43;;;;;;;20.40;9.82;;;;;;;;;;5120655;27;20061;-65
2024/01/06 03:16:12;;;;;;;14.38;8.18;;;;;;;;;;5101098;27;20040;-65
2024/01/06 03:18:38;;;;;;;17.25;8.82;;;;;;;;;;5096389;27;20564;-66
2024/01/06 03:21:04;;;;;;;16.98;8.57;;;;;;;;;;5097251;27;20043;-65
2024/01/06 03:23:30;;;;;;;16.55;9.38;;;;;;;;;;5102363;27;20482;-65
2024/01/06 03:25:56;;;;;;;20.20;9.02;;;;;;;;;;5119543;27;20122;-65
2024/01/06 03:28:23;;;;;;;20.38;8.88;;;;;;;;;;5118650;27;20055;-65
2024/01/06 03:30:49;;;;;;;18.33;9.52;;;;;;;;;;5098900;27;20671;-65
2024/01/06 03:33:15;;;;;;;16.92;9.43;;;;;;;;;;5097507;27;20187;-65
2024/01/06 03:35:41;;;;;;;18.23;10.02;;;;;;;;;;5099002;27;20051;-65
2024/01/06 03:38:07;;;;;;;25.77;10.57;;;;;;;;;;5104471;27;20036;-65
2024/01/06 03:40:33;;;;;;;18.83;9.90;;;;;;;;;;5122045;27;20174;-65
2024/01/06 03:43:00;;;;;;;15.75;9.40;;;;;;;;;;5104547;27;20043;-65
2024/01/06 03:45:26;;;;;;;21.42;9.20;;;;;;;;;;5117763;27;20447;-65
2024/01/06 03:47:52;;;;;;;18.27;9.70;;;;;;;;;;5099488;27;20031;-65
2024/01/06 03:50:19;;;;;;;17.48;10.05;;;;;;;;;;5098101;27;20039;-63
2024/01/06 03:52:45;;;;;;;22.45;9.80;;;;;;;;;;5118888;27;20466;-65
2024/01/06 03:55:11;;;;;;;16.77;9.05;;;;;;;;;;5118868;27;20169;-66
2024/01/06 03:57:37;;;;;;;17.25;8.88;;;;;;;;;;5098374;27;20503;-65
2024/01/06 04:00:04;;;;;;;16.58;8.20;;;;;;;;;;5098686;27;20059;-65
2024/01/06 04:02:30;;;;;;;18.77;8.55;;;;;;;;;;5098720;27;20039;-65
2024/01/06 04:04:56;;;;;;;17.35;8.60;;;;;;;;;;5100842;27;20056;-65
2024/01/06 04:07:22;;;;;;;16.75;8.35;;;;;;;;;;5095321;27;20046;-65
2024/01/06 04:09:48;;;;;;;16.60;8.10;;;;;;;;;;5099031;27;20401;-65
2024/01/06 04:12:15;;;;;;;23.05;8.65;;;;;;;;;;5095948;27;20035;-66
2024/01/06 04:14:41;;;;;;;22.90;8.68;;;;;;;;;;5117845;27;20046;-66
2024/01/06 04:17:07;;;;;;;23.00;8.57;;;;;;;;;;5098893;27;20126;-65
2024/01/06 04:19:33;;;;;;;23.23;9.40;;;;;;;;;;5099802;27;20407;-65
2024/01/06 04:22:00;;;;;;;19.17;9.07;;;;;;;;;;5098636;27;20047;-66
2024/01/06 04:24:26;;;;;;;20.67;8.82;;;;;;;;;;5116004;27;20047;-65
2024/01/06 04:26:52;;;;;;;16.70;8.50;;;;;;;;;;5100162;27;20070;-65
2024/01/06 04:29:18;;;;;;;16.20;8.23;;;;;;;;;;5099235;28;20181;-65
2024/01/06 04:31:45;;;;;;;21.27;8.40;;;;;;;;;;5117608;27;20062;-65
2024/01/06 04:34:11;;;;;;;15.65;8.57;;;;;;;;;;5119673;27;20043;-65
2024/01/06 04:36:37;;;;;;;16.13;10.00;;;;;;;;;;5097210;27;20040;-65
2024/01/06 04:39:03;;;;;;;21.67;7.97;;;;;;;;;;5119989;27;20417;-65
2024/01/06 04:41:29;;;;;;;16.40;8.98;;;;;;;;;;5118570;27;20047;-65
2024/01/06 04:43:55;;;;;;;18.85;9.60;;;;;;;;;;5100907;27;20481;-65
2024/01/06 04:46:21;;;;;;;19.02;9.38;;;;;;;;;;5098736;28;20047;-65
2024/01/06 04:48:48;;;;;;;20.98;9.27;;;;;;;;;;5098994;27;20047;-65
2024/01/06 04:51:14;;;;;;;20.40;8.02;;;;;;;;;;5099588;27;20100;-65
2024/01/06 04:53:41;;;;;;;18.10;8.45;;;;;;;;;;5101016;27;20140;-65
2024/01/06 04:56:07;;;;;;;18.58;9.20;;;;;;;;;;5120096;27;20374;-65
2024/01/06 04:58:34;;;;;;;19.48;8.57;;;;;;;;;;5115037;27;20039;-65
2024/01/06 05:01:00;;;;;;;20.17;8.88;;;;;;;;;;5117488;27;20043;-65
2024/01/06 05:03:27;;;;;;;19.38;9.23;;;;;;;;;;5115559;27;20173;-65
2024/01/06 05:05:53;;;;;;;20.10;8.88;;;;;;;;;;5098655;27;20437;-65
2024/01/06 05:08:20;;;;;;;22.25;8.95;;;;;;;;;;5094993;27;20440;-66
2024/01/06 05:10:47;;;;;;;17.73;8.63;;;;;;;;;;5114039;27;20425;-66
2024/01/06 05:13:13;;;;;;;16.00;8.93;;;;;;;;;;5118524;27;20126;-65
2024/01/06 05:15:39;;;;;;;19.27;8.20;;;;;;;;;;5117470;27;20047;-66
2024/01/06 05:18:05;;;;;;;20.80;9.27;;;;;;;;;;5114646;27;20375;-65
2024/01/06 05:20:32;;;;;;;19.52;8.20;;;;;;;;;;5096604;27;20089;-65
2024/01/06 05:22:58;;;;;;;14.57;8.25;;;;;;;;;;5117500;27;20031;-65
2024/01/06 05:25:24;;;;;;;21.30;8.40;;;;;;;;;;5118276;27;20043;-65
2024/01/06 05:27:50;;;;;;;16.98;8.35;;;;;;;;;;5115356;27;20494;-65
2024/01/06 05:30:16;;;;;;;16.52;8.48;;;;;;;;;;5115413;27;20063;-65
2024/01/06 05:32:42;;;;;;;19.40;9.85;;;;;;;;;;5096659;27;20230;-65
2024/01/06 05:35:09;;;;;;;15.75;8.75;;;;;;;;;;5115582;28;20132;-65
2024/01/06 05:37:35;;;;;;;13.85;7.93;;;;;;;;;;5096619;28;20165;-65
2024/01/06 05:40:03;;;;;;;21.95;9.63;;;;;;;;;;5096862;28;20054;-65
2024/01/06 05:42:29;;;;;;;18.30;8.88;;;;;;;;;;5099355;28;20133;-65
2024/01/06 05:44:56;;;;;;;16.42;8.13;;;;;;;;;;5118759;28;20032;-65
2024/01/06 05:47:22;;;;;;;17.50;7.80;;;;;;;;;;5122059;27;20551;-66
2024/01/06 05:49:48;;;;;;;17.27;8.85;;;;;;;;;;5101574;28;20045;-65
2024/01/06 05:52:15;;;;;;;17.70;8.50;;;;;;;;;;5118749;28;20035;-65
2024/01/06 05:54:42;;;;;;;14.13;8.05;;;;;;;;;;5118812;27;20067;-65
2024/01/06 05:57:08;;;;;;;20.17;9.18;;;;;;;;;;5118621;28;20051;-65
2024/01/06 05:59:35;;;;;;;18.35;9.02;;;;;;;;;;5123906;27;20100;-65
2024/01/06 06:02:01;;;;;;;18.83;8.85;;;;;;;;;;5102379;27;20479;-65
2024/01/06 06:04:27;;;;;;;15.40;8.98;;;;;;;;;;5105482;27;20161;-65
2024/01/06 06:06:53;;;;;;;18.65;8.90;;;;;;;;;;5099233;27;20043;-65
2024/01/06 06:09:21;;;;;;;17.85;8.52;;;;;;;;;;5101050;27;20077;-66
2024/01/06 06:11:48;;;;;;;18.52;8.75;;;;;;;;;;5121248;27;20043;-65
2024/01/06 06:14:14;;;;;;;19.98;9.73;;;;;;;;;;5119153;27;20042;-65
2024/01/06 06:16:40;;;;;;;14.88;8.45;;;;;;;;;;5118800;27;20423;-65
2024/01/06 06:19:07;;;;;;;18.55;7.70;;;;;;;;;;5099233;27;20042;-65
2024/01/06 06:21:34;;;;;;;13.93;8.65;;;;;;;;;;5081229;27;20077;-65
2024/01/06 06:24:00;;;;;;;16.77;8.80;;;;;;;;;;5118871;27;20051;-65
2024/01/06 06:26:26;;;;;;;18.92;9.05;;;;;;;;;;5099758;27;20051;-66
2024/01/06 06:28:53;;;;;;;22.10;9.23;;;;;;;;;;5121887;27;20409;-66
2024/01/06 06:31:19;;;;;;;22.30;9.00;;;;;;;;;;5101768;27;20528;-65
2024/01/06 06:33:45;;;;;;;19.80;9.80;;;;;;;;;;5103697;27;20043;-66
2024/01/06 06:36:11;;;;;;;17.42;9.93;;;;;;;;;;5120093;27;20085;-65
2024/01/06 06:38:38;;;;;;;17.92;8.52;;;;;;;;;;5122533;27;20067;-65
2024/01/06 06:41:05;;;;;;;17.42;9.13;;;;;;;;;;5102159;27;20051;-65
2024/01/06 06:43:31;;;;;;;20.30;9.02;;;;;;;;;;5119400;27;20043;-65
2024/01/06 06:45:57;;;;;;;17.45;8.70;;;;;;;;;;5122438;27;20130;-66
2024/01/06 06:48:23;;;;;;;17.63;9.40;;;;;;;;;;5124399;27;20117;-66
2024/01/06 06:50:49;;;;;;;17.83;8.90;;;;;;;;;;5109315;27;20471;-65
2024/01/06 06:53:16;;;;;;;18.55;9.48;;;;;;;;;;5114138;27;20377;-65
2024/01/06 06:55:42;;;;;;;26.45;9.77;;;;;;;;;;5121433;27;20043;-65
2024/01/06 06:58:08;;;;;;;15.75;9.38;;;;;;;;;;5105857;27;20080;-65
2024/01/06 07:00:35;;;;;;;20.10;9.48;;;;;;;;;;5112042;27;20039;-65
2024/01/06 07:03:01;;;;;;;24.08;10.35;;;;;;;;;;5101741;27;20062;-65
2024/01/06 07:05:28;;;;;;;25.60;9.80;;;;;;;;;;5104396;27;20075;-65
2024/01/06 07:07:54;;;;;;;16.73;9.35;;;;;;;;;;5108624;27;20050;-65
2024/01/06 07:10:21;;;;;;;20.65;10.07;;;;;;;;;;5106251;27;20510;-65
2024/01/06 07:12:47;;;;;;;19.90;9.50;;;;;;;;;;5099645;27;20367;-65
2024/01/06 07:15:13;;;;;;;18.35;9.77;;;;;;;;;;5118069;27;20096;-65
2024/01/06 07:17:39;;;;;;;16.70;9.75;;;;;;;;;;5118745;27;20035;-67
2024/01/06 07:20:07;;;;;;;17.73;9.18;;;;;;;;;;5124542;27;20573;-66
2024/01/06 07:22:35;;;;;;;17.85;9.43;;;;;;;;;;5089608;27;20252;-65
2024/01/06 07:25:01;;;;;;;14.65;8.07;;;;;;;;;;5119818;27;20141;-65
2024/01/06 07:27:28;;;;;;;18.50;8.93;;;;;;;;;;5109608;27;20494;-65
2024/01/06 07:29:55;;;;;;;20.48;9.18;;;;;;;;;;5102653;27;20457;-65
2024/01/06 07:32:22;;;;;;;16.10;8.18;;;;;;;;;;5117309;27;20051;-64
2024/01/06 07:34:48;;;;;;;14.90;8.48;;;;;;;;;;5122968;27;20143;-66
2024/01/06 07:37:15;;;;;;;13.73;7.90;;;;;;;;;;5100840;27;20092;-65
2024/01/06 07:39:41;;;;;;;15.15;8.02;;;;;;;;;;5101783;27;20050;-65
2024/01/06 07:42:08;;;;;;;16.42;8.15;;;;;;;;;;5123402;27;20100;-64
2024/01/06 07:44:34;;;;;;;15.13;7.55;;;;;;;;;;5097626;27;20047;-65
2024/01/06 07:47:02;;;;;;;16.02;8.70;;;;;;;;;;5106653;27;20043;-65
2024/01/06 07:49:28;;;;;;;19.13;8.65;;;;;;;;;;5109426;27;20075;-65
2024/01/06 07:51:54;;;;;;;15.30;7.53;;;;;;;;;;5123623;27;20039;-64
2024/01/06 07:54:20;;;;;;;18.23;8.38;;;;;;;;;;5108576;27;20047;-65
2024/01/06 07:56:46;;;;;;;16.30;8.57;;;;;;;;;;5108758;27;20136;-65
2024/01/06 07:59:13;;;;;;;19.10;8.18;;;;;;;;;;5129071;27;20067;-65
2024/01/06 08:01:39;;;;;;;12.88;7.22;;;;;;;;;;5104446;28;20103;-65
2024/01/06 08:04:05;;;;;;;15.63;9.18;;;;;;;;;;5104727;27;20082;-65
2024/01/06 08:06:31;;;;;;;16.67;7.90;;;;;;;;;;5121089;27;20035;-65
2024/01/06 08:08:58;;;;;;;16.52;7.70;;;;;;;;;;5123415;27;20157;-64
2024/01/06 08:11:24;;;;;;;18.40;8.50;;;;;;;;;;5119276;27;20088;-65
2024/01/06 08:13:50;;;;;;;16.88;8.70;;;;;;;;;;5107372;27;20134;-65
2024/01/06 08:16:16;;;;;;;18.20;8.93;;;;;;;;;;5104599;27;20055;-65
2024/01/06 08:18:42;;;;;;;16.08;8.55;;;;;;;;;;5095578;27;20070;-65
2024/01/06 08:21:08;;;;;;;19.95;8.57;;;;;;;;;;5106623;28;20435;-65
2024/01/06 08:23:35;;;;;;;14.57;8.68;;;;;;;;;;5121922;27;20099;-65
2024/01/06 08:26:01;;;;;;;17.98;9.35;;;;;;;;;;5103364;27;20053;-65
2024/01/06 08:28:27;;;;;;;16.58;9.20;;;;;;;;;;5122645;27;20512;-65
2024/01/06 08:30:53;;;;;;;17.02;8.50;;;;;;;;;;5117874;27;20063;-65
2024/01/06 08:33:20;;;;;;;16.23;8.68;;;;;;;;;;5105230;27;20044;-65
2024/01/06 08:35:46;;;;;;;16.33;9.07;;;;;;;;;;5100762;27;20049;-65
2024/01/06 08:38:12;;;;;;;19.25;9.85;;;;;;;;;;5106996;27;20139;-65
2024/01/06 08:40:38;;;;;;;16.90;10.07;;;;;;;;;;5104821;27;20501;-65
2024/01/06 08:43:04;;;;;;;22.95;9.60;;;;;;;;;;5123224;27;20083;-65
2024/01/06 08:45:30;;;;;;;18.60;10.15;;;;;;;;;;5099839;27;20089;-65
2024/01/06 08:47:57;;;;;;;18.08;9.88;;;;;;;;;;5120340;27;20482;-65
2024/01/06 08:50:23;;;;;;;19.58;10.30;;;;;;;;;;5102533;27;20411;-65
2024/01/06 08:52:50;;;;;;;21.38;10.68;;;;;;;;;;5121336;27;20039;-65
2024/01/06 08:55:16;;;;;;;16.85;10.73;;;;;;;;;;5103421;27;20047;-65
2024/01/06 08:57:42;;;;;;;21.52;11.40;;;;;;;;;;5100595;27;20035;-65
2024/01/06 09:00:10;;;;;;;17.92;10.65;;;;;;;;;;5123477;27;20050;-64
2024/01/06 09:02:36;;;;;;;17.85;9.95;;;;;;;;;;5106107;27;20047;-65
2024/01/06 09:05:03;;;;;;;16.17;10.07;;;;;;;;;;5100410;27;20114;-65
2024/01/06 09:07:29;;;;;;;18.45;10.82;;;;;;;;;;5100942;28;20036;-65
2024/01/06 09:09:55;;;;;;;19.13;11.32;;;;;;;;;;5104672;27;20048;-65
2024/01/06 09:12:21;;;;;;;18.30;11.10;;;;;;;;;;5105956;28;20031;-64
2024/01/06 09:14:47;;;;;;;19.90;11.20;;;;;;;;;;5104668;28;20120;-66
2024/01/06 09:17:14;;;;;;;17.98;10.70;;;;;;;;;;5086490;27;20046;-65
2024/01/06 09:19:40;;;;;;;20.27;10.55;;;;;;;;;;5107613;27;20050;-64
2024/01/06 09:22:06;;;;;;;23.77;11.05;;;;;;;;;;5124338;27;20036;-65
2024/01/06 09:24:33;;;;;;;19.83;11.18;;;;;;;;;;5127876;27;20454;-65
2024/01/06 09:26:59;;;;;;;20.70;11.18;;;;;;;;;;5126132;27;20083;-65
2024/01/06 09:29:25;;;;;;;14.85;9.85;;;;;;;;;;5109122;27;20469;-65
2024/01/06 09:31:52;;;;;;;19.05;11.23;;;;;;;;;;5127288;27;20039;-65
2024/01/06 09:34:18;;;;;;;19.30;10.80;;;;;;;;;;5106344;27;20229;-65
2024/01/06 09:36:44;;;;;;;19.92;10.55;;;;;;;;;;5105467;28;20039;-65
2024/01/06 09:39:11;;;;;;;23.50;10.20;;;;;;;;;;5124064;28;20039;-64
2024/01/06 09:41:37;;;;;;;18.38;10.18;;;;;;;;;;5122760;28;20043;-65
2024/01/06 09:44:03;;;;;;;19.55;10.50;;;;;;;;;;5105707;28;20074;-65
2024/01/06 09:46:30;;;;;;;19.85;9.40;;;;;;;;;;5103076;28;20083;-65
2024/01/06 09:48:58;;;;;;;24.63;9.68;;;;;;;;;;5125429;28;20512;-65
2024/01/06 09:51:25;;;;;;;20.88;9.48;;;;;;;;;;5124864;28;20116;-65
2024/01/06 09:53:58;;;;;;;23.75;10.95;;;;;;;;;;5126919;28;20115;-64
2024/01/06 09:56:26;;;;;;;18.45;10.43;;;;;;;;;;5120778;28;20044;-65
2024/01/06 09:58:52;;;;;;;20.63;10.88;;;;;;;;;;5115802;28;20042;-65
2024/01/06 10:01:19;;;;;;;20.60;11.70;;;;;;;;;;5113662;28;20062;-65
2024/01/06 10:03:45;;;;;;;21.55;11.25;;;;;;;;;;5119462;28;20084;-65
2024/01/06 10:06:12;;;;;;;18.95;10.63;;;;;;;;;;5118624;28;20043;-65
2024/01/06 10:08:40;;;;;;;21.95;11.52;;;;;;;;;;5118652;28;20368;-65
2024/01/06 10:11:08;;;;;;;30.90;12.27;;;;;;;;;;5123683;28;20420;-65
2024/01/06 10:13:34;;;;;;;24.35;10.88;;;;;;;;;;5117854;28;20187;-65
2024/01/06 10:16:00;;;;;;;22.35;10.50;;;;;;;;;;5102677;28;20061;-65
2024/01/06 10:18:29;;;;;;;18.30;9.68;;;;;;;;;;5120054;28;20054;-65
2024/01/06 10:20:56;;;;;;;21.15;10.43;;;;;;;;;;5118265;28;20051;-65
2024/01/06 10:23:23;;;;;;;17.83;10.18;;;;;;;;;;5102545;28;20723;-65
2024/01/06 10:25:52;;;;;;;20.65;10.27;;;;;;;;;;5104268;28;20510;-65
2024/01/06 10:28:18;;;;;;;23.27;10.70;;;;;;;;;;5120231;28;20035;-65
2024/01/06 10:30:44;;;;;;;20.30;10.57;;;;;;;;;;5101456;28;20063;-65
2024/01/06 10:33:11;;;;;;;20.35;10.10;;;;;;;;;;5103268;28;20055;-65
2024/01/06 10:35:38;;;;;;;17.63;10.82;;;;;;;;;;5101173;28;20115;-65
2024/01/06 10:38:04;;;;;;;22.55;11.52;;;;;;;;;;5104314;28;20093;-65
2024/01/06 10:40:30;;;;;;;18.42;10.20;;;;;;;;;;5121120;28;20384;-65
2024/01/06 10:42:57;;;;;;;21.20;10.60;;;;;;;;;;5120247;28;20089;-65
2024/01/06 10:45:24;;;;;;;20.63;10.00;;;;;;;;;;5117493;27;20059;-65
2024/01/06 10:47:50;;;;;;;18.50;9.82;;;;;;;;;;5123970;27;20046;-65
2024/01/06 10:50:18;;;;;;;18.05;9.60;;;;;;;;;;5106953;27;20138;-65
2024/01/06 10:52:45;;;;;;;17.33;8.93;;;;;;;;;;5107239;27;20398;-65
2024/01/06 10:55:11;;;;;;;15.32;8.68;;;;;;;;;;5122401;27;20035;-65
2024/01/06 10:57:38;;;;;;;18.50;8.70;;;;;;;;;;5121603;27;20031;-65
2024/01/06 11:00:05;;;;;;;16.83;9.02;;;;;;;;;;5121617;27;20043;-65
2024/01/06 11:02:32;;;;;;;13.93;8.00;;;;;;;;;;5123274;27;20518;-65
2024/01/06 11:04:58;;;;;;;18.23;9.23;;;;;;;;;;5124211;27;20054;-65
2024/01/06 11:07:26;;;;;;;16.27;8.75;;;;;;;;;;5122117;27;20027;-64
2024/01/06 11:09:58;;;;;;;14.23;9.07;;;;;;;;;;5123949;27;20482;-65
2024/01/06 11:12:26;;;;;;;16.05;9.48;;;;;;;;;;5108759;27;20047;-65
2024/01/06 11:14:52;;;;;;;18.77;8.48;;;;;;;;;;5124073;27;20043;-65
2024/01/06 11:17:39;;;;;;;15.77;8.98;;;;;;;;;;5122319;27;20110;-64
2024/01/06 11:20:06;;;;;;;14.55;8.50;;;;;;;;;;5104206;27;20047;-65
2024/01/06 11:22:33;;;;;;;12.90;8.30;;;;;;;;;;5110403;27;20385;-65
2024/01/06 11:25:05;;;;;;;16.88;8.30;;;;;;;;;;5105542;27;20051;-65
2024/01/06 11:27:32;;;;;;;18.08;8.45;;;;;;;;;;5106007;27;20065;-65
2024/01/06 11:30:00;;;;;;;17.58;9.02;;;;;;;;;;5108445;27;20035;-65
2024/01/06 11:32:28;;;;;;;17.27;8.65;;;;;;;;;;5123038;27;20146;-64
2024/01/06 11:34:56;;;;;;;13.32;8.43;;;;;;;;;;5125520;27;20058;-64
2024/01/06 11:37:26;;;;;;;11.55;7.63;;;;;;;;;;5126057;27;20154;-65
2024/01/06 11:39:53;;;;;;;17.00;9.55;;;;;;;;;;5124588;27;20110;-65
2024/01/06 11:42:19;;;;;;;16.88;9.52;;;;;;;;;;5122042;27;20107;-65
2024/01/06 11:44:50;;;;;;;14.90;7.55;;;;;;;;;;5107279;27;20070;-65
2024/01/06 11:47:18;;;;;;;12.15;7.75;;;;;;;;;;5107267;27;20039;-65
2024/01/06 11:49:47;;;;;;;11.18;7.30;;;;;;;;;;5126142;27;20175;-65
2024/01/06 11:52:14;;;;;;;14.32;7.18;;;;;;;;;;5107174;27;20051;-65
2024/01/06 11:54:41;;;;;;;11.95;7.07;;;;;;;;;;5123575;27;20368;-65
2024/01/06 11:57:08;;;;;;;14.50;7.57;;;;;;;;;;5122824;27;20054;-65
2024/01/06 11:59:34;;;;;;;11.50;7.28;;;;;;;;;;5104180;27;20403;-65
2024/01/06 12:02:00;;;;;;;12.05;7.10;;;;;;;;;;5105555;27;20159;-65
2024/01/06 12:04:27;;;;;;;12.07;7.03;;;;;;;;;;5107242;27;20125;-65
2024/01/06 12:06:54;;;;;;;11.20;6.70;;;;;;;;;;5120502;27;20399;-65
2024/01/06 12:09:20;;;;;;;12.43;7.55;;;;;;;;;;5106414;27;20449;-65
2024/01/06 12:11:47;;;;;;;13.13;6.95;;;;;;;;;;5124618;27;20104;-65
2024/01/06 12:14:13;;;;;;;13.70;7.40;;;;;;;;;;5104739;27;20043;-65
2024/01/06 12:16:39;;;;;;;13.68;7.68;;;;;;;;;;5124683;27;20053;-65
2024/01/06 12:19:06;;;;;;;12.23;6.80;;;;;;;;;;5123067;27;20038;-65
2024/01/06 12:21:36;;;;;;;11.95;6.57;;;;;;;;;;5107502;27;20508;-65
2024/01/06 12:24:15;;;;;;;12.63;6.63;;;;;;;;;;5101461;27;20089;-65
2024/01/06 12:26:42;;;;;;;11.60;6.30;;;;;;;;;;5120875;27;20130;-65
2024/01/06 12:29:08;;;;;;;11.10;6.22;;;;;;;;;;5118374;27;20096;-65
2024/01/06 12:31:34;;;;;;;14.57;6.80;;;;;;;;;;5122483;27;20054;-65
2024/01/06 12:34:01;;;;;;;10.75;6.38;;;;;;;;;;5117394;27;20413;-65
2024/01/06 12:36:27;;;;;;;12.93;6.93;;;;;;;;;;5118316;27;20164;-65
2024/01/06 12:38:55;;;;;;;12.70;6.75;;;;;;;;;;5118091;27;20047;-65
2024/01/06 12:41:22;;;;;;;10.73;6.78;;;;;;;;;;5105677;27;20090;-65
2024/01/06 12:43:48;;;;;;;10.27;6.10;;;;;;;;;;5120397;27;20127;-65
2024/01/06 12:46:14;;;;;;;11.45;6.70;;;;;;;;;;5099832;27;20390;-65
2024/01/06 12:48:41;;;;;;;10.55;6.15;;;;;;;;;;5100351;27;20047;-65
2024/01/06 12:51:07;;;;;;;11.05;6.13;;;;;;;;;;5120835;27;20114;-65
2024/01/06 12:53:33;;;;;;;9.52;6.13;;;;;;;;;;5104612;27;20039;-65
2024/01/06 12:55:59;;;;;;;11.20;6.78;;;;;;;;;;5104655;27;20375;-65
2024/01/06 12:58:25;;;;;;;11.15;6.10;;;;;;;;;;5122485;27;20039;-65
2024/01/06 13:00:52;;;;;;;9.45;5.25;;;;;;;;;;5102219;27;20116;-65
2024/01/06 13:03:18;;;;;;;10.00;6.47;;;;;;;;;;5120174;27;20186;-65
2024/01/06 13:05:44;;;;;;;11.32;6.43;;;;;;;;;;5104411;27;20084;-65
2024/01/06 13:08:11;;;;;;;11.15;6.25;;;;;;;;;;5120773;27;20041;-65
2024/01/06 13:10:37;;;;;;;11.25;7.70;;;;;;;;;;5121663;27;20043;-65
2024/01/06 13:13:03;;;;;;;10.70;6.43;;;;;;;;;;5104208;27;20043;-65
2024/01/06 13:15:29;;;;;;;10.40;6.75;;;;;;;;;;5119567;27;20407;-65
2024/01/06 13:17:56;;;;;;;9.73;5.80;;;;;;;;;;5102262;28;20050;-65
2024/01/06 13:20:23;;;;;;;11.23;6.47;;;;;;;;;;5121297;27;20175;-65
2024/01/06 13:22:51;;;;;;;10.50;6.10;;;;;;;;;;5121658;27;20126;-65
2024/01/06 13:25:19;;;;;;;11.45;6.05;;;;;;;;;;5113151;27;20048;-65
2024/01/06 13:27:46;;;;;;;11.25;6.00;;;;;;;;;;5095760;28;20048;-65
2024/01/06 13:30:13;;;;;;;9.13;5.50;;;;;;;;;;5118377;27;20051;-65
2024/01/06 13:32:39;;;;;;;10.77;5.28;;;;;;;;;;5101201;28;20051;-65
2024/01/06 13:35:06;;;;;;;9.63;6.20;;;;;;;;;;5122233;27;20523;-65
2024/01/06 13:37:33;;;;;;;7.82;5.28;;;;;;;;;;5104895;27;20095;-65
2024/01/06 13:39:59;;;;;;;11.85;6.03;;;;;;;;;;5103178;28;20043;-65
2024/01/06 13:42:25;;;;;;;11.20;5.65;;;;;;;;;;5121038;28;20047;-65
2024/01/06 13:44:51;;;;;;;15.70;6.45;;;;;;;;;;5100253;28;20043;-65
2024/01/06 13:47:18;;;;;;;10.98;6.05;;;;;;;;;;5113839;28;20040;-65
2024/01/06 13:49:44;;;;;;;13.70;6.95;;;;;;;;;;5095854;28;20043;-65
2024/01/06 13:52:10;;;;;;;12.40;6.63;;;;;;;;;;5091777;28;20153;-65
2024/01/06 13:54:36;;;;;;;10.20;6.35;;;;;;;;;;5097144;28;20122;-65
2024/01/06 13:57:02;;;;;;;9.98;6.47;;;;;;;;;;5096587;28;20043;-65
2024/01/06 13:59:29;;;;;;;8.70;5.93;;;;;;;;;;5097622;28;20043;-65
2024/01/06 14:01:55;;;;;;;11.05;6.82;;;;;;;;;;5105573;28;20047;-65
2024/01/06 14:04:23;;;;;;;13.80;7.03;;;;;;;;;;5087086;28;20133;-65
2024/01/06 14:06:55;;;;;;;10.70;6.38;;;;;;;;;;5112742;28;20039;-65
2024/01/06 14:09:22;;;;;;;10.52;6.20;;;;;;;;;;5119961;28;20061;-65
2024/01/06 14:11:48;;;;;;;9.90;5.70;;;;;;;;;;5115222;28;20113;-65
2024/01/06 14:14:14;;;;;;;12.15;6.70;;;;;;;;;;5119691;28;20036;-65
2024/01/06 14:16:40;;;;;;;10.65;7.20;;;;;;;;;;5114420;28;20044;-65
2024/01/06 14:19:06;;;;;;;9.68;6.07;;;;;;;;;;5112020;27;20424;-65
2024/01/06 14:21:32;;;;;;;14.20;8.23;;;;;;;;;;5096942;27;20043;-65
2024/01/06 14:23:59;;;;;;;9.63;5.85;;;;;;;;;;5100933;27;20138;-65